Startpagina
METAR-TAF:

METAR-TAF

Vliegvelden :

Flughafen Friedrichshafen

Friedrichshafen, Duitsland

breedte: 47-40N, lengte: 009-31E, hoogte: 416 m

Actueel weer

Dit bericht is 37 minuten geleden gemaakt, om 08:20 UTC
Wind 8 kt uit het oostnoordoosten, variërend tussen het noordoosten en het oosten
Temperatuur 16°C
Vochtigheid 45%
Druk 1018 hPa
Zicht 10 km of meer
geen wolken onder 1500 m en geen cumulonimbus

METAR: EDNY 310820Z 07008KT 040V100 CAVOK 16/04 Q1018

Tijdstip: 10:57 (08:57 UTC)

Verwachting

Dit bericht is 3 uur en het 57 minuten geleden gemaakt, om 05:00 UTC
Verwachting geldig van 31 om 06 UTC tot 01 om 06 UTC
Wind 5 kt uit het noordoosten
Zicht 10 km of meer
geen wolken onder 1500 m en geen cumulonimbus
Wijzigt naar
van 31 om 07 UTC tot 31 om 09 UTC
Wind 10 kt uit het noordoosten
Wijzigt naar
van 01 om 01 UTC tot 01 om 03 UTC
Wind 5 kt uit het noordoosten

TAF: EDNY 310500Z 3106/0106 05005KT CAVOK BECMG 3107/3109 05010KT BECMG 0101/0103 04005KT

Waarnemingen en weersverwachtingen van meer dan 4000 vliegvelden (METAR en TAF).

De beschikbare stations zijn de gele en rode punten op de kaart.

Ga met uw muis naar het station om de naam te zien.

Klik dan om waarnemingen en weersverwachtingen te zien.

kaart wijzigen: klik op de groene knoppen met een zwart kruis om in te zoomen, op de groene knop met een streepje om uit te zoomen of op de groene pijlen voor aangrenzende kaarten.


METAR-TAF: